Time;durP1;ratioP1;P1;durP2;ratioP2;P2;SDS_P1;SDS_P2;PMS_P1;PMS_P2;Temp;Humidity;BMP_temperature;BMP_pressure;BME280_temperature;BME280_humidity;BME280_pressure;Samples;Min_cycle;Max_cycle;Signal;HPM_P1;HPM_P2
2021/12/16 00:06:48;;;;;;;7.65;3.85;;;5.70;99.90;;;;;;5089803;28;20177;-69
2021/12/16 00:09:01;;;;;;;6.60;5.05;;;5.70;99.90;;;;;;5089423;28;20177;-69
2021/12/16 00:33:32;;;;;;;5.78;3.63;;;5.60;99.90;;;;;;5069195;28;20262;-69
2021/12/16 00:35:58;;;;;;;6.70;4.50;;;5.60;99.90;;;;;;5069077;28;20191;-70
2021/12/16 00:38:23;;;;;;;4.50;3.57;;;5.60;99.90;;;;;;5068792;28;20285;-69
2021/12/16 00:40:49;;;;;;;4.87;4.20;;;5.60;99.90;;;;;;5069035;28;20374;-70
2021/12/16 00:43:43;;;;;;;7.50;4.60;;;5.60;99.90;;;;;;5068967;28;20211;-68
2021/12/16 00:46:31;;;;;;;6.93;4.50;;;5.50;99.90;;;;;;5051461;28;20350;-69
2021/12/16 00:54:13;;;;;;;6.15;4.30;;;5.50;99.90;;;;;;5068722;28;20221;-69
2021/12/16 00:56:42;;;;;;;6.43;4.13;;;5.60;99.90;;;;;;5050975;28;20237;-68
2021/12/16 00:59:10;;;;;;;4.90;3.85;;;5.50;99.90;;;;;;5051282;28;20173;-68
2021/12/16 01:01:45;;;;;;;7.85;5.72;;;5.50;99.90;;;;;;5069319;28;20164;-70
2021/12/16 01:07:10;;;;;;;7.28;5.25;;;5.60;99.90;;;;;;5068371;28;20180;-68
2021/12/16 01:34:34;;;;;;;7.93;4.40;;;5.50;99.90;;;;;;5088041;28;20223;-69
2021/12/16 01:45:39;;;;;;;7.57;4.38;;;5.30;99.90;;;;;;5087923;28;20334;-68
2021/12/16 01:48:53;;;;;;;4.60;4.15;;;5.30;99.90;;;;;;5087619;28;20196;-69
2021/12/16 01:51:04;;;;;;;6.32;3.80;;;5.30;99.90;;;;;;5087106;28;20173;-69
2021/12/16 01:56:49;;;;;;;5.05;3.47;;;5.40;99.90;;;;;;5026313;28;20190;-71
2021/12/16 01:59:20;;;;;;;5.68;3.92;;;5.40;99.90;;;;;;5026709;28;20281;-71
2021/12/16 02:01:47;;;;;;;7.65;3.80;;;5.40;99.90;;;;;;5026664;28;20178;-71
2021/12/16 02:04:22;;;;;;;5.20;4.70;;;5.40;99.90;;;;;;5026411;28;20346;-70
2021/12/16 02:09:29;;;;;;;4.80;3.00;;;5.40;99.90;;;;;;5026623;28;20162;-70
2021/12/16 02:12:05;;;;;;;4.65;4.20;;;5.30;99.90;;;;;;5026389;28;20257;-68
2021/12/16 02:35:46;;;;;;;6.03;5.15;;;5.30;99.90;;;;;;5066946;28;20170;-71
2021/12/16 02:38:16;;;;;;;5.72;3.45;;;5.30;99.90;;;;;;5066817;28;20237;-70
2021/12/16 02:40:44;;;;;;;7.32;4.45;;;5.30;99.90;;;;;;5067079;28;20162;-70
2021/12/16 02:48:32;;;;;;;6.28;4.53;;;5.30;99.90;;;;;;5066705;28;20403;-70
2021/12/16 02:51:08;;;;;;;5.03;4.47;;;5.30;99.90;;;;;;5066910;28;20327;-69
2021/12/16 02:53:36;;;;;;;4.43;3.88;;;5.30;99.90;;;;;;5049175;28;20201;-69
2021/12/16 02:56:03;;;;;;;3.35;2.55;;;5.30;99.90;;;;;;5066934;28;20219;-69
2021/12/16 02:58:29;;;;;;;5.65;4.15;;;5.40;99.90;;;;;;5066561;28;20313;-69
2021/12/16 03:01:06;;;;;;;3.25;2.78;;;5.40;99.90;;;;;;5067133;28;20181;-70
2021/12/16 03:03:31;;;;;;;4.72;4.32;;;5.40;99.90;;;;;;5067402;28;20215;-68
2021/12/16 03:05:59;;;;;;;5.40;4.20;;;5.40;99.90;;;;;;5049171;28;20165;-71
2021/12/16 03:08:25;;;;;;;6.57;4.38;;;5.40;99.90;;;;;;5066444;28;20166;-70
2021/12/16 03:16:33;;;;;;;7.03;3.70;;;5.40;99.90;;;;;;5079820;28;20173;-68
2021/12/16 03:19:14;;;;;;;5.93;5.10;;;5.40;99.90;;;;;;5086684;28;20165;-70
2021/12/16 03:21:45;;;;;;;4.35;3.60;;;5.50;99.90;;;;;;5086605;28;20262;-69
2021/12/16 03:37:15;;;;;;;4.87;3.27;;;5.50;99.90;;;;;;5086136;28;20168;-69
2021/12/16 03:40:00;;;;;;;7.65;5.40;;;5.50;99.90;;;;;;5086544;28;20215;-69
2021/12/16 03:42:33;;;;;;;4.28;3.20;;;5.50;99.90;;;;;;5086472;28;20165;-70
2021/12/16 03:46:25;;;;;;;6.85;4.95;;;5.50;99.90;;;;;;5086424;28;20178;-69
2021/12/16 03:47:58;;;;;;;8.45;4.45;;;5.50;99.90;;;;;;5073440;28;20173;-69
2021/12/16 03:50:23;;;;;;;9.33;4.67;;;5.60;99.90;;;;;;5090131;28;20317;-69
2021/12/16 03:52:50;;;;;;;5.63;3.87;;;5.60;99.90;;;;;;5090017;28;20161;-71
2021/12/16 03:55:16;;;;;;;6.50;3.80;;;5.50;99.90;;;;;;5089866;28;20474;-69
2021/12/16 03:57:43;;;;;;;8.00;3.92;;;5.50;99.90;;;;;;5089552;28;20244;-69
2021/12/16 04:00:19;;;;;;;6.72;4.28;;;5.50;99.90;;;;;;5089847;28;20171;-69
2021/12/16 04:02:45;;;;;;;7.95;6.35;;;5.50;99.90;;;;;;5089775;28;20174;-68
2021/12/16 04:05:13;;;;;;;6.07;4.57;;;5.60;99.90;;;;;;5089852;28;20181;-69
2021/12/16 04:07:39;;;;;;;7.90;5.60;;;5.50;99.90;;;;;;5089515;28;20165;-69
2021/12/16 04:10:10;;;;;;;5.88;4.28;;;5.50;99.90;;;;;;5089707;28;20165;-69
2021/12/16 04:12:36;;;;;;;5.18;4.30;;;5.50;99.90;;;;;;5072774;28;20187;-70
2021/12/16 04:15:05;;;;;;;7.27;5.13;;;5.50;99.90;;;;;;5086322;28;20210;-69
2021/12/16 04:17:32;;;;;;;7.78;4.63;;;5.50;99.90;;;;;;5069118;28;20400;-69
2021/12/16 04:20:00;;;;;;;11.80;6.63;;;5.60;99.90;;;;;;5069469;28;20199;-68
2021/12/16 04:22:34;;;;;;;7.95;4.45;;;5.50;99.90;;;;;;5069415;28;20171;-71
2021/12/16 04:25:04;;;;;;;6.50;5.43;;;5.50;99.90;;;;;;5069308;28;20188;-68
2021/12/16 04:27:31;;;;;;;7.63;5.00;;;5.50;99.90;;;;;;5069070;28;20180;-70
2021/12/16 04:29:57;;;;;;;9.82;5.75;;;5.50;99.90;;;;;;5069238;28;20172;-69
2021/12/16 04:32:23;;;;;;;9.40;6.68;;;5.40;99.90;;;;;;5069290;28;20221;-69
2021/12/16 04:34:49;;;;;;;5.18;3.80;;;5.40;99.90;;;;;;5069129;28;20200;-69
2021/12/16 04:37:15;;;;;;;6.43;4.50;;;5.40;99.90;;;;;;5068935;28;20204;-70
2021/12/16 04:39:43;;;;;;;8.37;6.10;;;5.40;99.90;;;;;;5069135;28;20461;-69
2021/12/16 04:42:10;;;;;;;7.00;4.70;;;5.40;99.90;;;;;;5069053;28;20393;-67
2021/12/16 04:44:36;;;;;;;7.78;5.57;;;5.40;99.90;;;;;;5068960;28;20192;-69
2021/12/16 04:47:04;;;;;;;7.90;5.30;;;5.40;99.90;;;;;;5068820;28;20192;-69
2021/12/16 04:49:29;;;;;;;8.85;6.30;;;5.40;99.90;;;;;;5068999;28;20159;-69
2021/12/16 04:51:57;;;;;;;8.37;6.50;;;5.40;99.90;;;;;;5068978;28;20174;-68
2021/12/16 04:54:24;;;;;;;10.45;5.47;;;5.40;99.90;;;;;;5068651;28;20378;-70
2021/12/16 04:56:53;;;;;;;6.75;4.53;;;5.30;99.90;;;;;;5068543;28;20237;-69
2021/12/16 04:59:20;;;;;;;8.77;6.53;;;5.30;99.90;;;;;;5068763;28;20375;-70
2021/12/16 05:01:53;;;;;;;16.65;7.72;;;5.30;99.90;;;;;;5068690;28;20162;-69
2021/12/16 05:04:19;;;;;;;10.55;8.05;;;5.30;99.90;;;;;;5051550;28;20386;-69
2021/12/16 05:06:44;;;;;;;8.50;6.90;;;5.40;99.90;;;;;;5068229;28;20254;-69
2021/12/16 05:09:29;;;;;;;8.87;6.07;;;5.40;99.90;;;;;;5068818;28;20196;-69
2021/12/16 05:11:55;;;;;;;11.10;7.07;;;5.30;99.90;;;;;;5068507;28;20185;-69
2021/12/16 05:14:21;;;;;;;8.13;5.50;;;5.30;99.90;;;;;;5068337;28;20386;-69
2021/12/16 05:16:47;;;;;;;12.23;6.20;;;5.30;99.90;;;;;;5085914;28;20181;-69
2021/12/16 05:19:12;;;;;;;11.03;5.27;;;5.20;99.90;;;;;;5088395;28;20169;-69
2021/12/16 05:21:54;;;;;;;10.57;5.23;;;5.20;99.90;;;;;;5088384;28;20194;-69
2021/12/16 05:24:29;;;;;;;8.10;6.32;;;5.20;99.90;;;;;;5088295;28;20176;-71
2021/12/16 05:27:04;;;;;;;8.70;5.32;;;5.20;99.90;;;;;;5087892;28;20180;-69
2021/12/16 05:29:30;;;;;;;10.48;6.75;;;5.30;99.90;;;;;;5088237;28;20156;-67
2021/12/16 05:31:56;;;;;;;5.60;3.30;;;5.20;99.90;;;;;;5087912;28;20161;-69
2021/12/16 05:34:22;;;;;;;10.57;7.00;;;5.20;99.90;;;;;;5087921;28;20229;-70
2021/12/16 05:36:48;;;;;;;8.65;5.78;;;5.30;99.90;;;;;;5087781;28;20167;-71
2021/12/16 05:39:16;;;;;;;7.50;5.15;;;5.30;99.90;;;;;;5088039;28;20348;-69
2021/12/16 05:41:41;;;;;;;13.50;7.43;;;5.20;99.90;;;;;;5088010;28;20364;-70
2021/12/16 05:44:07;;;;;;;6.73;4.03;;;5.30;99.90;;;;;;5087759;28;20185;-70
2021/12/16 05:46:33;;;;;;;7.13;4.67;;;5.20;99.90;;;;;;5087224;28;20173;-69
2021/12/16 05:49:01;;;;;;;9.03;4.60;;;5.20;99.90;;;;;;5087583;28;20185;-70
2021/12/16 05:51:29;;;;;;;8.27;4.70;;;5.20;99.90;;;;;;5086953;28;20399;-69
2021/12/16 05:53:56;;;;;;;10.73;5.72;;;5.20;99.90;;;;;;5085722;28;20206;-71
2021/12/16 05:56:22;;;;;;;13.95;5.68;;;5.30;99.90;;;;;;5085610;28;20275;-69
2021/12/16 05:58:49;;;;;;;12.47;5.40;;;5.30;99.90;;;;;;5085786;28;20215;-70
2021/12/16 06:01:23;;;;;;;9.50;5.07;;;5.30;99.90;;;;;;5085698;28;20162;-70
2021/12/16 06:03:49;;;;;;;8.27;5.88;;;5.30;99.90;;;;;;5085531;28;20204;-68
2021/12/16 06:06:16;;;;;;;10.87;7.10;;;5.30;99.90;;;;;;5085932;28;20348;-69
2021/12/16 06:08:44;;;;;;;8.80;5.35;;;5.40;99.90;;;;;;5087474;28;20169;-71
2021/12/16 06:11:19;;;;;;;10.88;6.90;;;5.40;99.90;;;;;;5087074;28;20262;-69
2021/12/16 06:14:09;;;;;;;8.30;4.60;;;5.40;99.90;;;;;;5087264;28;20205;-71
2021/12/16 06:27:36;;;;;;;10.13;5.03;;;5.50;99.90;;;;;;5066981;28;20185;-70
2021/12/16 06:30:06;;;;;;;7.65;5.35;;;5.50;99.90;;;;;;5067111;28;20165;-70
2021/12/16 06:32:32;;;;;;;8.32;4.95;;;5.50;99.90;;;;;;5067142;28;20177;-69
2021/12/16 06:34:58;;;;;;;6.03;5.07;;;5.60;99.90;;;;;;5066879;28;20466;-68
2021/12/16 06:37:24;;;;;;;9.27;6.20;;;5.60;99.90;;;;;;5066688;28;20174;-71
2021/12/16 06:39:50;;;;;;;9.37;5.30;;;5.60;99.90;;;;;;5066932;28;20196;-69
2021/12/16 06:42:16;;;;;;;8.75;5.85;;;5.60;99.90;;;;;;5066843;28;20474;-70
2021/12/16 06:44:51;;;;;;;5.43;4.40;;;5.70;99.90;;;;;;5066933;28;20188;-68
2021/12/16 06:47:22;;;;;;;10.00;5.13;;;5.70;99.90;;;;;;5066718;28;20392;-70
2021/12/16 06:49:51;;;;;;;8.65;7.25;;;5.60;99.90;;;;;;5066950;28;20169;-69
2021/12/16 06:52:20;;;;;;;8.65;6.07;;;5.60;99.90;;;;;;5066812;28;20168;-70
2021/12/16 06:57:50;;;;;;;7.80;5.20;;;5.60;99.90;;;;;;5022518;28;20256;-68
2021/12/16 07:00:28;;;;;;;4.45;3.30;;;5.60;99.90;;;;;;5066644;28;20211;-68
2021/12/16 07:05:45;;;;;;;6.90;6.25;;;5.60;99.90;;;;;;5066584;28;20171;-69
2021/12/16 07:08:14;;;;;;;4.95;3.90;;;5.70;99.90;;;;;;5065471;28;20183;-68
2021/12/16 07:10:45;;;;;;;8.93;4.90;;;5.70;99.90;;;;;;5066380;28;20237;-69
2021/12/16 07:13:18;;;;;;;9.18;4.25;;;5.70;99.90;;;;;;5066373;28;20285;-69
2021/12/16 07:15:45;;;;;;;14.93;6.68;;;5.80;99.90;;;;;;5075408;28;20363;-69
2021/12/16 07:18:11;;;;;;;8.32;4.88;;;5.80;99.90;;;;;;5086197;28;20159;-70
2021/12/16 07:20:37;;;;;;;8.80;6.20;;;5.80;99.90;;;;;;5084770;28;20203;-69
2021/12/16 07:23:05;;;;;;;11.52;5.97;;;5.80;99.90;;;;;;5088464;28;20177;-69
2021/12/16 07:25:31;;;;;;;6.70;4.90;;;5.70;99.90;;;;;;5088497;28;20388;-67
2021/12/16 07:27:57;;;;;;;6.40;4.07;;;5.70;99.90;;;;;;5083871;27;20278;-68
2021/12/16 07:30:24;;;;;;;10.52;6.68;;;5.70;99.90;;;;;;5110345;27;20169;-69
2021/12/16 07:32:51;;;;;;;10.93;8.00;;;5.70;99.90;;;;;;5098109;27;20179;-67
2021/12/16 07:35:21;;;;;;;9.63;5.43;;;5.70;99.90;;;;;;5090099;28;20207;-67
2021/12/16 07:37:47;;;;;;;7.13;4.68;;;5.70;99.90;;;;;;5089886;28;20171;-68
2021/12/16 07:40:16;;;;;;;8.52;5.47;;;5.70;99.90;;;;;;5089407;28;20293;-68
2021/12/16 07:42:46;;;;;;;11.80;5.35;;;5.70;99.90;;;;;;5088685;28;20175;-68
2021/12/16 07:45:17;;;;;;;9.85;5.45;;;5.70;99.90;;;;;;5071268;28;20165;-69
2021/12/16 07:47:46;;;;;;;9.38;5.20;;;5.70;99.90;;;;;;5089581;28;20165;-69
2021/12/16 07:50:14;;;;;;;6.40;5.65;;;5.80;99.90;;;;;;5089704;28;20253;-68
2021/12/16 07:52:40;;;;;;;7.00;5.43;;;5.80;99.90;;;;;;5089862;28;20157;-68
2021/12/16 07:55:07;;;;;;;7.43;5.47;;;5.80;99.90;;;;;;5089474;28;20223;-68
2021/12/16 07:57:33;;;;;;;11.20;5.75;;;5.90;99.90;;;;;;5088662;28;20217;-68
2021/12/16 07:59:58;;;;;;;11.97;5.73;;;5.90;99.90;;;;;;5072091;28;20170;-67
2021/12/16 08:02:24;;;;;;;8.83;5.90;;;5.90;99.90;;;;;;5089601;28;20175;-67
2021/12/16 08:04:52;;;;;;;8.65;4.95;;;5.90;99.90;;;;;;5089556;28;20190;-66
2021/12/16 08:07:20;;;;;;;8.55;4.88;;;5.90;99.90;;;;;;5077080;28;20162;-68
2021/12/16 08:09:48;;;;;;;9.25;5.10;;;5.90;99.90;;;;;;5069434;28;20165;-69
2021/12/16 08:12:15;;;;;;;7.85;4.78;;;5.90;99.90;;;;;;5079879;28;20259;-68
2021/12/16 08:14:43;;;;;;;10.95;6.38;;;5.80;99.90;;;;;;5088724;28;20224;-69
2021/12/16 08:17:09;;;;;;;7.85;5.05;;;5.80;99.90;;;;;;5069176;28;20159;-70
2021/12/16 08:19:35;;;;;;;7.00;4.82;;;5.80;99.90;;;;;;5069361;28;20165;-70
2021/12/16 08:22:02;;;;;;;10.45;4.22;;;5.70;99.90;;;;;;5069148;28;20211;-70
2021/12/16 08:24:28;;;;;;;7.15;4.90;;;5.70;99.90;;;;;;5069000;28;20190;-69
2021/12/16 08:26:53;;;;;;;6.37;4.90;;;5.70;99.90;;;;;;5068951;28;20413;-70
2021/12/16 08:29:20;;;;;;;8.80;5.53;;;5.80;99.90;;;;;;5069196;28;20168;-70
2021/12/16 08:31:46;;;;;;;7.18;5.07;;;5.80;99.90;;;;;;5069228;28;20166;-70
2021/12/16 08:34:13;;;;;;;9.95;4.75;;;5.80;99.90;;;;;;5068637;28;20194;-70
2021/12/16 08:36:39;;;;;;;7.10;5.85;;;5.80;99.90;;;;;;5068800;28;20375;-70
2021/12/16 08:39:08;;;;;;;7.63;6.88;;;5.90;99.90;;;;;;5069055;28;20161;-70
2021/12/16 08:41:42;;;;;;;16.77;5.65;;;5.90;99.90;;;;;;5051271;28;20226;-70
2021/12/16 08:44:08;;;;;;;8.98;5.70;;;5.90;99.90;;;;;;5068858;28;20282;-70
2021/12/16 08:46:37;;;;;;;9.70;4.63;;;5.90;99.90;;;;;;5051027;28;20180;-71
2021/12/16 08:49:03;;;;;;;8.23;4.93;;;5.90;99.90;;;;;;5051633;28;20381;-69
2021/12/16 08:51:34;;;;;;;6.63;4.15;;;5.90;99.90;;;;;;5068759;28;20183;-69
2021/12/16 08:54:00;;;;;;;10.73;6.05;;;6.00;99.90;;;;;;5068628;28;20200;-69
2021/12/16 08:56:27;;;;;;;4.85;3.90;;;6.00;99.90;;;;;;5068362;28;20371;-70
2021/12/16 08:58:55;;;;;;;10.30;3.85;;;6.00;99.90;;;;;;5068585;28;20187;-70
2021/12/16 09:01:25;;;;;;;8.40;4.68;;;6.10;99.90;;;;;;5068764;28;20160;-70
2021/12/16 09:03:52;;;;;;;8.52;4.40;;;6.10;99.90;;;;;;5068473;28;20195;-70
2021/12/16 09:06:19;;;;;;;9.02;5.45;;;6.20;99.90;;;;;;5050750;28;20175;-70
2021/12/16 09:08:45;;;;;;;6.63;4.45;;;6.20;99.90;;;;;;5068475;28;20439;-70
2021/12/16 09:11:14;;;;;;;4.72;4.20;;;6.20;99.90;;;;;;5068490;28;20182;-70
2021/12/16 09:13:42;;;;;;;8.77;5.65;;;6.20;99.90;;;;;;5068200;28;20187;-70
2021/12/16 09:16:13;;;;;;;7.95;5.43;;;6.20;99.90;;;;;;5080747;28;20388;-70
2021/12/16 09:18:41;;;;;;;7.00;5.53;;;6.20;99.90;;;;;;5088108;28;20358;-70
2021/12/16 09:21:12;;;;;;;4.53;3.50;;;6.20;99.90;;;;;;5088324;28;20392;-69
2021/12/16 09:23:40;;;;;;;9.65;4.90;;;6.30;99.90;;;;;;5088322;28;20357;-70
2021/12/16 09:26:06;;;;;;;5.95;4.63;;;6.40;99.90;;;;;;5088320;28;20178;-70
2021/12/16 09:28:32;;;;;;;7.10;5.57;;;6.40;99.90;;;;;;5087917;28;20210;-70
2021/12/16 09:30:58;;;;;;;6.33;3.70;;;6.40;99.90;;;;;;5088080;28;20178;-69
2021/12/16 09:33:25;;;;;;;6.50;4.53;;;6.30;99.90;;;;;;5087981;28;20298;-70
2021/12/16 09:35:55;;;;;;;5.60;4.30;;;6.40;99.90;;;;;;5087881;28;20451;-70
2021/12/16 09:38:22;;;;;;;6.28;4.53;;;6.40;99.90;;;;;;5087530;28;20416;-69
2021/12/16 09:40:52;;;;;;;6.22;4.07;;;6.50;99.90;;;;;;5087738;28;20169;-70
2021/12/16 09:43:23;;;;;;;5.55;4.95;;;6.60;99.90;;;;;;5087764;28;20258;-70
2021/12/16 09:45:50;;;;;;;7.10;4.70;;;6.60;99.90;;;;;;5087213;28;20394;-69
2021/12/16 09:48:17;;;;;;;6.05;4.90;;;6.60;99.90;;;;;;5087453;28;20305;-69
2021/12/16 09:50:42;;;;;;;6.45;4.05;;;6.60;99.90;;;;;;5087777;28;20165;-70
2021/12/16 09:53:09;;;;;;;5.77;4.20;;;6.60;99.90;;;;;;5087470;28;20244;-70
2021/12/16 09:55:35;;;;;;;4.47;3.65;;;6.60;99.90;;;;;;5087620;28;20206;-70
2021/12/16 09:58:03;;;;;;;7.17;4.47;;;6.60;99.90;;;;;;5087362;28;20395;-70
2021/12/16 10:00:30;;;;;;;4.80;3.78;;;6.60;99.90;;;;;;5087594;28;20410;-70
2021/12/16 10:02:58;;;;;;;6.22;4.28;;;6.70;99.90;;;;;;5087364;28;20237;-69
2021/12/16 10:05:24;;;;;;;8.55;4.47;;;6.60;99.90;;;;;;5087414;28;20172;-70
2021/12/16 10:07:50;;;;;;;6.47;4.47;;;6.60;99.90;;;;;;5087016;28;20180;-69
2021/12/16 10:10:20;;;;;;;8.70;5.40;;;6.60;99.90;;;;;;5069718;28;20160;-71
2021/12/16 10:12:49;;;;;;;8.77;5.60;;;6.60;99.90;;;;;;5087237;28;20168;-70
2021/12/16 10:18:08;;;;;;;4.97;3.80;;;6.60;99.90;;;;;;5067169;28;20391;-69
2021/12/16 10:20:48;;;;;;;6.95;4.57;;;6.70;99.90;;;;;;5067098;28;20211;-71
2021/12/16 10:23:19;;;;;;;6.30;4.43;;;6.70;99.90;;;;;;5067221;28;20386;-68
2021/12/16 10:25:49;;;;;;;5.47;4.07;;;6.80;99.90;;;;;;5049725;28;20169;-70
2021/12/16 10:28:28;;;;;;;8.20;5.00;;;6.80;99.90;;;;;;5066662;28;20167;-70
2021/12/16 10:31:20;;;;;;;7.35;4.72;;;6.80;99.90;;;;;;5067074;28;20191;-70
2021/12/16 10:33:54;;;;;;;10.50;5.03;;;6.90;99.90;;;;;;5063667;28;20314;-70
2021/12/16 10:36:45;;;;;;;5.05;4.50;;;7.00;99.90;;;;;;5066816;28;20188;-69
2021/12/16 10:39:22;;;;;;;7.57;5.10;;;7.10;99.90;;;;;;5006343;28;20175;-70
2021/12/16 10:41:54;;;;;;;5.00;4.55;;;7.20;99.90;;;;;;5006365;28;20276;-70
2021/12/16 10:44:33;;;;;;;8.68;3.47;;;7.20;99.90;;;;;;4989727;28;20194;-70
2021/12/16 10:47:16;;;;;;;7.15;5.43;;;7.20;99.90;;;;;;4989758;28;20256;-70
2021/12/16 10:49:49;;;;;;;6.35;4.93;;;7.30;99.90;;;;;;5003512;28;20193;-70
2021/12/16 10:52:27;;;;;;;5.43;4.40;;;7.30;99.90;;;;;;5006685;28;20195;-71
2021/12/16 10:54:54;;;;;;;6.32;4.45;;;7.30;99.90;;;;;;4990281;28;20220;-69
2021/12/16 10:57:25;;;;;;;5.53;4.07;;;7.30;99.90;;;;;;5005519;28;20201;-69
2021/12/16 11:00:04;;;;;;;6.45;4.20;;;7.30;99.90;;;;;;4989842;28;20201;-70
2021/12/16 11:02:33;;;;;;;5.15;3.95;;;7.30;99.90;;;;;;5005994;28;20174;-71
2021/12/16 11:05:31;;;;;;;6.20;5.60;;;7.40;99.90;;;;;;5005914;28;20433;-70
2021/12/16 11:07:59;;;;;;;5.28;4.43;;;7.40;99.90;;;;;;5001901;28;20190;-70
2021/12/16 11:10:33;;;;;;;4.65;3.50;;;7.40;99.90;;;;;;4989673;28;20390;-69
2021/12/16 11:13:02;;;;;;;6.40;5.18;;;7.40;99.90;;;;;;5005862;28;20193;-70
2021/12/16 11:15:49;;;;;;;8.13;4.60;;;7.40;99.90;;;;;;5027523;28;20212;-70
2021/12/16 11:18:21;;;;;;;6.47;3.60;;;7.40;99.90;;;;;;5068740;28;20191;-70
2021/12/16 11:21:04;;;;;;;5.45;4.40;;;7.40;99.90;;;;;;5086602;28;20172;-70
2021/12/16 11:23:32;;;;;;;6.07;4.53;;;7.50;99.90;;;;;;5086474;28;20223;-70
2021/12/16 11:26:15;;;;;;;9.45;5.63;;;7.50;99.90;;;;;;5086546;28;20199;-69
2021/12/16 11:28:45;;;;;;;4.50;3.83;;;7.50;99.90;;;;;;5086594;28;20165;-71
2021/12/16 11:31:17;;;;;;;5.43;4.70;;;7.50;99.90;;;;;;5086560;28;20204;-70
2021/12/16 11:33:57;;;;;;;6.70;4.70;;;7.40;99.90;;;;;;5086508;28;20273;-71
2021/12/16 11:36:35;;;;;;;8.18;4.05;;;7.50;99.90;;;;;;5086209;28;20205;-70
2021/12/16 11:39:04;;;;;;;8.77;5.20;;;7.50;99.90;;;;;;5086563;28;20168;-71
2021/12/16 11:41:35;;;;;;;5.35;4.63;;;7.50;99.90;;;;;;5086507;28;20213;-70
2021/12/16 11:44:24;;;;;;;6.82;3.80;;;7.50;99.90;;;;;;5086483;28;20185;-71
2021/12/16 11:46:51;;;;;;;4.32;3.78;;;7.50;99.90;;;;;;5068446;28;20168;-71
2021/12/16 11:49:22;;;;;;;9.50;4.78;;;7.50;99.90;;;;;;5086393;28;20285;-70
2021/12/16 11:52:02;;;;;;;4.85;3.67;;;7.60;99.90;;;;;;5086441;28;20186;-69
2021/12/16 11:54:34;;;;;;;10.05;4.50;;;7.60;99.90;;;;;;5086212;28;20313;-69
2021/12/16 11:57:24;;;;;;;7.10;5.68;;;7.60;99.90;;;;;;5086041;28;20198;-70
2021/12/16 12:00:04;;;;;;;6.30;3.85;;;7.70;99.90;;;;;;5086232;28;20224;-69
2021/12/16 12:02:37;;;;;;;6.97;5.15;;;7.70;99.90;;;;;;5086188;28;20276;-69
2021/12/16 12:05:20;;;;;;;6.53;5.25;;;7.80;99.90;;;;;;5085994;28;20195;-71
2021/12/16 12:07:53;;;;;;;6.65;5.10;;;7.70;99.90;;;;;;5086149;28;20347;-70
2021/12/16 12:10:48;;;;;;;5.70;5.18;;;7.70;99.90;;;;;;5089695;28;20191;-71
2021/12/16 12:13:24;;;;;;;7.22;4.78;;;7.80;99.90;;;;;;5089543;28;20199;-69
2021/12/16 12:16:15;;;;;;;7.18;5.85;;;7.90;99.90;;;;;;5079244;28;20425;-70
2021/12/16 12:18:53;;;;;;;7.65;5.05;;;7.90;99.90;;;;;;5051751;28;20192;-71
2021/12/16 12:21:39;;;;;;;10.20;6.03;;;7.90;99.90;;;;;;5069380;28;20367;-68
2021/12/16 12:24:16;;;;;;;7.68;5.15;;;8.00;99.90;;;;;;5069250;28;20184;-71
2021/12/16 12:27:03;;;;;;;6.55;4.88;;;8.10;99.90;;;;;;5069084;28;20173;-70
2021/12/16 12:29:36;;;;;;;5.38;4.88;;;8.10;99.90;;;;;;5069282;28;20293;-69
2021/12/16 12:32:05;;;;;;;5.43;4.93;;;8.10;99.90;;;;;;5069225;28;20175;-70
2021/12/16 12:34:32;;;;;;;6.65;4.70;;;8.20;99.90;;;;;;5068954;28;20389;-69
2021/12/16 12:37:02;;;;;;;5.65;4.70;;;8.20;99.90;;;;;;5068829;28;20290;-70
2021/12/16 12:39:35;;;;;;;6.82;3.33;;;8.30;99.90;;;;;;5069152;28;20231;-70
2021/12/16 12:42:02;;;;;;;7.43;4.20;;;8.40;99.90;;;;;;5069073;28;20259;-72
2021/12/16 12:44:27;;;;;;;7.00;5.07;;;8.50;99.90;;;;;;5068860;28;20212;-69
2021/12/16 12:46:54;;;;;;;6.77;4.17;;;8.50;99.90;;;;;;5068621;28;20165;-69
2021/12/16 12:49:25;;;;;;;6.32;5.65;;;8.50;99.90;;;;;;5085500;27;20182;-68
2021/12/16 12:52:00;;;;;;;6.97;4.35;;;8.40;99.90;;;;;;5088931;28;20181;-72
2021/12/16 12:54:28;;;;;;;6.68;5.38;;;8.30;99.90;;;;;;5089104;28;20310;-72
2021/12/16 12:57:16;;;;;;;6.20;4.82;;;8.30;99.90;;;;;;5088539;28;20226;-73
2021/12/16 12:59:42;;;;;;;5.55;4.65;;;8.30;99.90;;;;;;5088618;28;20156;-73
2021/12/16 13:02:35;;;;;;;5.70;4.30;;;8.30;99.90;;;;;;5088738;28;20169;-72
2021/12/16 13:05:04;;;;;;;8.05;3.83;;;8.40;99.90;;;;;;5071528;28;20200;-71
2021/12/16 13:07:43;;;;;;;7.65;5.25;;;8.40;99.90;;;;;;5088327;28;20156;-72
2021/12/16 13:10:21;;;;;;;5.68;4.85;;;8.40;99.90;;;;;;5088567;28;20164;-72
2021/12/16 13:23:33;;;;;;;6.78;5.22;;;8.50;99.90;;;;;;5068298;28;20475;-72
2021/12/16 13:31:26;;;;;;;4.45;4.05;;;8.60;99.90;;;;;;5067972;28;20173;-68
2021/12/16 13:33:57;;;;;;;5.82;4.15;;;8.60;99.90;;;;;;5067086;28;20231;-70
2021/12/16 13:36:49;;;;;;;4.47;4.07;;;8.50;99.90;;;;;;5067801;28;20158;-68
2021/12/16 13:39:19;;;;;;;8.10;5.63;;;8.50;99.90;;;;;;5067878;28;20222;-68
2021/12/16 13:42:12;;;;;;;5.22;3.92;;;8.50;99.90;;;;;;5068126;28;20154;-71
2021/12/16 13:44:46;;;;;;;6.72;4.53;;;8.50;99.90;;;;;;5050355;28;20447;-70
2021/12/16 14:02:53;;;;;;;6.47;3.65;;;8.20;99.90;;;;;;5049935;28;20225;-70
2021/12/16 14:05:40;;;;;;;5.70;4.68;;;8.10;99.90;;;;;;5059120;28;20302;-70
2021/12/16 14:08:13;;;;;;;6.97;4.60;;;8.20;99.90;;;;;;5067186;28;20166;-68
2021/12/16 14:16:55;;;;;;;4.57;4.07;;;8.20;99.90;;;;;;5080044;28;20186;-67
2021/12/16 14:25:41;;;;;;;5.28;4.07;;;8.10;99.90;;;;;;5087145;28;20285;-69
2021/12/16 14:47:54;;;;;;;5.68;4.72;;;7.90;99.90;;;;;;5086375;28;20242;-69
2021/12/16 14:49:37;;;;;;;4.93;3.65;;;7.80;99.90;;;;;;5072722;28;20188;-69
2021/12/16 14:52:04;;;;;;;4.50;4.10;;;7.90;99.90;;;;;;5086693;28;20164;-69
2021/12/16 14:54:34;;;;;;;6.63;4.38;;;7.80;99.90;;;;;;5086759;28;20220;-66
2021/12/16 14:57:01;;;;;;;6.95;4.68;;;7.80;99.90;;;;;;5086331;28;20174;-72
2021/12/16 14:59:29;;;;;;;5.28;4.50;;;7.70;99.90;;;;;;5086912;28;20168;-68
2021/12/16 15:01:59;;;;;;;4.70;4.13;;;7.60;99.90;;;;;;5086701;28;20179;-70
2021/12/16 15:04:26;;;;;;;4.95;4.45;;;7.60;99.90;;;;;;5068842;28;20455;-67
2021/12/16 15:07:02;;;;;;;4.28;3.60;;;7.60;99.90;;;;;;5086438;28;20199;-70
2021/12/16 15:09:33;;;;;;;4.95;4.50;;;7.50;99.90;;;;;;5086660;28;20247;-68
2021/12/16 15:12:38;;;;;;;9.55;4.22;;;7.40;99.90;;;;;;5086620;28;20266;-69
2021/12/16 15:45:50;;;;;;;20.92;5.43;;;6.60;99.90;;;;;;5052866;28;20180;-70
2021/12/16 15:48:23;;;;;;;8.43;6.13;;;6.50;99.90;;;;;;5069911;28;20195;-69
2021/12/16 15:51:10;;;;;;;6.18;5.60;;;6.40;99.90;;;;;;5069863;28;20196;-68
2021/12/16 15:53:42;;;;;;;11.00;7.30;;;6.40;99.90;;;;;;5069836;28;20206;-70
2021/12/16 15:56:11;;;;;;;4.70;4.18;;;6.30;99.90;;;;;;5069991;28;20182;-68
2021/12/16 15:58:49;;;;;;;6.60;4.72;;;6.30;99.90;;;;;;5069639;28;20162;-69
2021/12/16 16:01:20;;;;;;;7.75;6.30;;;6.20;99.90;;;;;;5069611;28;20182;-68
2021/12/16 16:03:46;;;;;;;6.93;4.30;;;6.30;99.90;;;;;;5069455;28;20203;-68
2021/12/16 16:06:14;;;;;;;7.28;5.22;;;6.20;99.90;;;;;;5069637;28;20157;-70
2021/12/16 16:08:48;;;;;;;7.90;5.32;;;6.20;99.90;;;;;;5069345;28;20186;-69
2021/12/16 16:11:20;;;;;;;7.55;6.15;;;6.20;99.90;;;;;;5069435;28;20190;-67
2021/12/16 16:13:52;;;;;;;7.10;6.22;;;6.20;99.90;;;;;;5069383;28;20173;-70
2021/12/16 16:16:21;;;;;;;5.45;4.95;;;6.30;99.90;;;;;;5082782;28;20216;-67
2021/12/16 16:18:55;;;;;;;8.85;6.35;;;6.30;99.90;;;;;;5089402;28;20181;-71
2021/12/16 16:21:32;;;;;;;9.82;5.78;;;6.20;99.90;;;;;;5089369;28;20184;-70
2021/12/16 16:24:29;;;;;;;6.35;5.75;;;6.20;99.90;;;;;;5089355;28;20352;-69
2021/12/16 16:26:57;;;;;;;4.68;4.25;;;6.10;99.90;;;;;;5070274;28;20376;-69
2021/12/16 16:29:26;;;;;;;6.88;4.90;;;6.20;99.90;;;;;;5069174;28;20183;-67
2021/12/16 16:31:53;;;;;;;7.95;6.25;;;6.20;99.90;;;;;;5069182;28;20157;-68
2021/12/16 16:34:26;;;;;;;7.30;4.70;;;6.10;99.90;;;;;;5068850;28;20300;-67
2021/12/16 16:36:56;;;;;;;6.88;4.60;;;6.10;99.90;;;;;;5068863;28;20185;-68
2021/12/16 16:39:27;;;;;;;5.40;4.70;;;6.20;99.90;;;;;;5069057;28;20172;-64
2021/12/16 16:41:59;;;;;;;8.43;5.50;;;6.10;99.90;;;;;;5069027;28;20230;-66
2021/12/16 16:44:27;;;;;;;6.40;4.13;;;6.20;99.90;;;;;;5068837;28;20210;-65
2021/12/16 16:46:59;;;;;;;6.80;4.13;;;6.20;99.90;;;;;;5068284;28;20182;-67
2021/12/16 16:49:41;;;;;;;5.22;4.72;;;6.20;99.90;;;;;;5068778;28;20309;-66
2021/12/16 16:52:11;;;;;;;16.40;8.32;;;6.20;99.90;;;;;;5068674;28;20164;-70
2021/12/16 16:54:48;;;;;;;8.00;5.25;;;6.20;99.90;;;;;;5068224;28;20239;-67
2021/12/16 16:57:20;;;;;;;6.53;4.68;;;6.20;99.90;;;;;;5068247;28;20165;-69
2021/12/16 16:59:55;;;;;;;11.68;6.30;;;6.20;99.90;;;;;;5068652;28;20310;-69
2021/12/16 17:02:29;;;;;;;6.15;4.97;;;6.20;99.90;;;;;;5069603;28;20205;-70
2021/12/16 17:05:00;;;;;;;5.43;4.80;;;6.30;99.90;;;;;;5068550;28;20309;-68
2021/12/16 17:07:28;;;;;;;5.70;4.45;;;6.30;99.90;;;;;;5068200;28;20157;-66
2021/12/16 17:09:54;;;;;;;6.47;5.97;;;6.20;99.90;;;;;;5068411;28;20177;-67